createdAt,value
2019-02-21T00:00:10.276Z,53.70
2019-02-21T00:00:41.484Z,53.70
2019-02-21T00:01:12.680Z,53.70
2019-02-21T00:01:43.887Z,53.70
2019-02-21T00:02:15.461Z,53.70
2019-02-21T00:02:46.640Z,53.70
2019-02-21T00:03:18.114Z,53.60
2019-02-21T00:03:49.288Z,53.60
2019-02-21T00:04:20.782Z,53.60
2019-02-21T00:04:52.345Z,53.60
2019-02-21T00:05:23.516Z,53.60
2019-02-21T00:05:54.724Z,53.60
2019-02-21T00:06:25.901Z,53.50
2019-02-21T00:06:57.080Z,53.50
2019-02-21T00:07:28.265Z,53.60
2019-02-21T00:07:59.714Z,53.50
2019-02-21T00:08:30.893Z,53.60
2019-02-21T00:09:02.078Z,53.50
2019-02-21T00:09:33.626Z,53.50
2019-02-21T00:10:04.831Z,53.50
2019-02-21T00:10:36.136Z,53.50
2019-02-21T00:11:07.379Z,53.60
2019-02-21T00:11:38.577Z,53.50
2019-02-21T00:12:09.878Z,53.50
2019-02-21T00:12:41.086Z,53.50
2019-02-21T00:13:12.261Z,53.50
2019-02-21T00:13:43.444Z,53.60
2019-02-21T00:14:14.966Z,53.60
2019-02-21T00:14:46.157Z,53.50
2019-02-21T00:15:17.342Z,53.60
2019-02-21T00:15:48.823Z,53.60
2019-02-21T00:16:20.359Z,53.60
2019-02-21T00:16:51.545Z,53.60
2019-02-21T00:17:22.730Z,53.60
2019-02-21T00:17:54.267Z,53.60
2019-02-21T00:18:25.446Z,53.60
2019-02-21T00:18:56.623Z,53.60
2019-02-21T00:19:27.795Z,53.50
2019-02-21T00:19:59.007Z,53.60
2019-02-21T00:20:30.187Z,53.50
2019-02-21T00:21:01.392Z,53.50
2019-02-21T00:21:32.599Z,53.60
2019-02-21T00:22:03.844Z,53.50
2019-02-21T00:22:35.096Z,53.60
2019-02-21T00:23:06.481Z,53.60
2019-02-21T00:23:38.124Z,53.50
2019-02-21T00:24:09.668Z,53.50
2019-02-21T00:24:40.856Z,53.50
2019-02-21T00:25:12.044Z,53.60
2019-02-21T00:25:43.216Z,53.10
2019-02-21T00:26:14.417Z,53.60
2019-02-21T00:26:45.592Z,53.60
2019-02-21T00:27:16.777Z,53.60
2019-02-21T00:27:47.957Z,53.60
2019-02-21T00:28:19.159Z,53.60
2019-02-21T00:28:50.376Z,53.70
2019-02-21T00:29:23.133Z,53.60
2019-02-21T00:29:54.336Z,53.60
2019-02-21T00:30:34.922Z,53.60
2019-02-21T00:30:58.500Z,53.50
2019-02-21T00:31:29.989Z,53.50
2019-02-21T00:32:01.180Z,53.60
2019-02-21T00:32:32.381Z,53.50
2019-02-21T00:33:03.595Z,53.50
2019-02-21T00:33:34.780Z,53.50
2019-02-21T00:34:05.965Z,53.50
2019-02-21T00:34:37.227Z,53.50
2019-02-21T00:35:08.434Z,53.50
2019-02-21T00:35:39.614Z,53.50
2019-02-21T00:36:10.790Z,53.50
2019-02-21T00:36:42.047Z,53.50
2019-02-21T00:37:13.266Z,53.50
2019-02-21T00:37:44.517Z,53.40
2019-02-21T00:38:15.702Z,53.40
2019-02-21T00:38:46.883Z,53.50
2019-02-21T00:39:18.295Z,53.40
2019-02-21T00:39:49.508Z,53.40
2019-02-21T00:40:20.770Z,53.50
2019-02-21T00:40:52.293Z,53.50
2019-02-21T00:41:23.655Z,53.50
2019-02-21T00:41:54.810Z,53.50
2019-02-21T00:42:26.068Z,53.40
2019-02-21T00:42:57.249Z,53.40
2019-02-21T00:43:28.495Z,53.40
2019-02-21T00:43:59.676Z,53.40
2019-02-21T00:44:30.857Z,53.40
2019-02-21T00:45:02.054Z,53.40
2019-02-21T00:45:33.262Z,53.30
2019-02-21T00:46:04.505Z,53.30
2019-02-21T00:46:36.137Z,53.40
2019-02-21T00:47:07.328Z,53.40
2019-02-21T00:47:38.494Z,53.40
2019-02-21T00:48:09.955Z,53.30
2019-02-21T00:48:41.146Z,53.40
2019-02-21T00:49:12.329Z,53.30
2019-02-21T00:49:43.625Z,53.40
2019-02-21T00:50:14.823Z,53.30
2019-02-21T00:50:45.998Z,53.30
2019-02-21T00:51:17.181Z,53.30
2019-02-21T00:51:48.365Z,53.30
2019-02-21T00:52:19.899Z,53.30
2019-02-21T00:52:51.102Z,53.30
2019-02-21T00:53:22.310Z,53.30
2019-02-21T00:53:53.543Z,53.30
2019-02-21T00:54:25.055Z,53.20
2019-02-21T00:54:56.272Z,53.20
2019-02-21T00:55:27.972Z,53.30
2019-02-21T00:55:59.643Z,53.20
2019-02-21T00:56:30.829Z,53.20
2019-02-21T00:57:02.015Z,53.20
2019-02-21T00:57:33.197Z,53.30
2019-02-21T00:58:04.528Z,53.20
2019-02-21T00:58:35.735Z,53.20
2019-02-21T00:59:06.960Z,53.30
2019-02-21T00:59:38.160Z,53.20
2019-02-21T01:00:09.415Z,53.20
2019-02-21T01:00:46.427Z,53.20
2019-02-21T01:01:13.721Z,53.20
2019-02-21T01:01:44.919Z,53.20
2019-02-21T01:02:16.108Z,53.20
2019-02-21T01:02:47.283Z,53.30
2019-02-21T01:03:18.470Z,53.20
2019-02-21T01:03:49.666Z,53.30
2019-02-21T01:04:20.847Z,53.20
2019-02-21T01:04:52.099Z,53.20
2019-02-21T01:05:23.288Z,53.20
2019-02-21T01:05:54.464Z,53.60
2019-02-21T01:06:25.926Z,53.20
2019-02-21T01:06:57.470Z,53.30
2019-02-21T01:07:28.742Z,53.20
2019-02-21T01:07:59.925Z,53.30
2019-02-21T01:08:31.504Z,53.20
2019-02-21T01:09:03.020Z,53.30
2019-02-21T01:09:34.200Z,53.20
2019-02-21T01:10:05.389Z,53.20
2019-02-21T01:10:36.728Z,53.20
2019-02-21T01:11:07.967Z,53.20
2019-02-21T01:11:39.521Z,53.20
2019-02-21T01:12:10.718Z,53.20
2019-02-21T01:12:41.965Z,53.30
2019-02-21T01:13:13.494Z,53.30
2019-02-21T01:13:44.741Z,53.30
2019-02-21T01:14:15.935Z,53.40
2019-02-21T01:14:47.489Z,53.30
2019-02-21T01:15:18.672Z,53.40
2019-02-21T01:15:49.949Z,53.30
2019-02-21T01:16:21.153Z,53.20
2019-02-21T01:16:52.727Z,53.20
2019-02-21T01:17:23.990Z,53.20
2019-02-21T01:17:55.185Z,53.30
2019-02-21T01:18:26.386Z,53.20
2019-02-21T01:18:57.582Z,53.20
2019-02-21T01:19:28.824Z,53.20
2019-02-21T01:20:00.371Z,53.20
2019-02-21T01:20:31.667Z,53.20
2019-02-21T01:21:02.858Z,53.20
2019-02-21T01:21:34.048Z,53.10
2019-02-21T01:22:05.218Z,53.60
2019-02-21T01:22:36.448Z,53.20
2019-02-21T01:23:07.684Z,53.30
2019-02-21T01:23:38.926Z,53.10
2019-02-21T01:24:10.104Z,53.10
2019-02-21T01:24:41.291Z,53.10
2019-02-21T01:25:12.469Z,53.00
2019-02-21T01:25:43.695Z,53.20
2019-02-21T01:26:14.876Z,53.10
2019-02-21T01:26:46.059Z,53.10
2019-02-21T01:27:17.244Z,53.70
2019-02-21T01:27:48.700Z,53.10
2019-02-21T01:28:20.294Z,53.30
2019-02-21T01:28:51.467Z,53.10
2019-02-21T01:29:22.658Z,53.00
2019-02-21T01:29:54.146Z,53.10
2019-02-21T01:30:25.324Z,53.00
2019-02-21T01:30:57.280Z,53.10
2019-02-21T01:31:28.794Z,53.10
2019-02-21T01:32:00.049Z,53.10
2019-02-21T01:32:31.321Z,53.10
2019-02-21T01:33:02.662Z,53.10
2019-02-21T01:33:33.836Z,53.00
2019-02-21T01:34:05.043Z,53.10
2019-02-21T01:34:36.287Z,53.10
2019-02-21T01:35:07.907Z,53.10
2019-02-21T01:35:39.110Z,53.10
2019-02-21T01:36:10.305Z,53.10
2019-02-21T01:36:41.554Z,53.10
2019-02-21T01:37:13.077Z,53.10
2019-02-21T01:37:44.385Z,53.10
2019-02-21T01:38:15.585Z,53.10
2019-02-21T01:38:46.782Z,53.10
2019-02-21T01:39:18.194Z,53.10
2019-02-21T01:39:49.379Z,53.10
2019-02-21T01:40:20.604Z,53.10
2019-02-21T01:40:51.793Z,53.20
2019-02-21T01:41:22.996Z,53.30
2019-02-21T01:41:54.183Z,53.10
2019-02-21T01:42:25.617Z,53.10
2019-02-21T01:42:56.835Z,53.10
2019-02-21T01:43:28.014Z,53.10
2019-02-21T01:43:59.188Z,53.00
2019-02-21T01:44:30.366Z,53.10
2019-02-21T01:45:01.552Z,53.00
2019-02-21T01:45:32.759Z,53.10
2019-02-21T01:46:03.951Z,53.00
2019-02-21T01:46:35.167Z,53.00
2019-02-21T01:47:06.367Z,53.00
2019-02-21T01:47:37.808Z,53.00
2019-02-21T01:48:08.999Z,53.00
2019-02-21T01:48:40.256Z,53.00
2019-02-21T01:49:11.498Z,53.00
2019-02-21T01:49:43.017Z,53.00
2019-02-21T01:50:14.221Z,53.00
2019-02-21T01:50:45.405Z,53.00
2019-02-21T01:51:16.580Z,53.00
2019-02-21T01:51:47.771Z,53.00
2019-02-21T01:52:18.949Z,53.00
2019-02-21T01:52:50.124Z,53.00
2019-02-21T01:53:21.396Z,52.60
2019-02-21T01:53:52.579Z,53.00
2019-02-21T01:54:24.059Z,53.00
2019-02-21T01:54:55.293Z,53.00
2019-02-21T01:55:26.477Z,53.00
2019-02-21T01:55:57.658Z,53.00
2019-02-21T01:56:29.050Z,53.10
2019-02-21T01:57:00.266Z,53.00
2019-02-21T01:57:31.521Z,53.00
2019-02-21T01:58:02.790Z,53.00
2019-02-21T01:58:33.950Z,53.00
2019-02-21T01:59:05.121Z,53.00
2019-02-21T01:59:36.370Z,53.10
2019-02-21T02:00:07.559Z,53.00
2019-02-21T02:00:38.818Z,53.00
2019-02-21T02:01:10.042Z,53.00
2019-02-21T02:01:41.278Z,53.00
2019-02-21T02:02:12.501Z,53.00
2019-02-21T02:02:43.755Z,53.00
2019-02-21T02:03:14.926Z,53.00
2019-02-21T02:03:46.115Z,53.00
2019-02-21T02:04:17.327Z,53.00
2019-02-21T02:04:48.518Z,53.00
2019-02-21T02:05:19.877Z,53.00
2019-02-21T02:05:51.056Z,53.00
2019-02-21T02:06:22.223Z,53.00
2019-02-21T02:06:53.415Z,52.90
2019-02-21T02:07:24.628Z,53.00
2019-02-21T02:07:55.807Z,52.90
2019-02-21T02:08:27.286Z,52.90
2019-02-21T02:08:58.518Z,52.80
2019-02-21T02:09:29.707Z,52.90
2019-02-21T02:10:00.884Z,52.90
2019-02-21T02:10:32.063Z,52.80
2019-02-21T02:11:03.548Z,52.90
2019-02-21T02:11:34.763Z,52.90
2019-02-21T02:12:06.049Z,52.90
2019-02-21T02:12:37.388Z,52.80
2019-02-21T02:13:08.589Z,52.80
2019-02-21T02:13:39.784Z,52.80
2019-02-21T02:14:10.974Z,52.80
2019-02-21T02:14:42.170Z,52.90
2019-02-21T02:15:13.408Z,52.80
2019-02-21T02:15:44.625Z,52.80
2019-02-21T02:16:16.099Z,52.80
2019-02-21T02:16:47.277Z,52.80
2019-02-21T02:17:18.464Z,52.80
2019-02-21T02:17:50.000Z,52.80
2019-02-21T02:18:21.259Z,52.80
2019-02-21T02:18:52.427Z,52.80
2019-02-21T02:19:23.621Z,52.80
2019-02-21T02:19:55.070Z,52.90
2019-02-21T02:20:26.292Z,52.80
2019-02-21T02:20:57.919Z,52.70
2019-02-21T02:21:29.110Z,52.80
2019-02-21T02:22:00.329Z,52.70
2019-02-21T02:22:31.589Z,52.70
2019-02-21T02:23:02.778Z,52.70
2019-02-21T02:23:33.942Z,52.80
2019-02-21T02:24:05.211Z,52.70
2019-02-21T02:24:36.444Z,52.70
2019-02-21T02:25:07.620Z,52.70
2019-02-21T02:25:38.824Z,52.70
2019-02-21T02:26:10.029Z,52.80
2019-02-21T02:26:41.539Z,52.70
2019-02-21T02:27:12.723Z,52.70
2019-02-21T02:27:43.955Z,52.70
2019-02-21T02:28:15.202Z,52.70
2019-02-21T02:28:46.796Z,52.80
2019-02-21T02:29:17.997Z,52.70
2019-02-21T02:29:49.230Z,52.70
2019-02-21T02:30:20.427Z,52.70
2019-02-21T02:30:51.667Z,52.70
2019-02-21T02:31:23.787Z,52.70
2019-02-21T02:31:55.275Z,52.70
2019-02-21T02:32:26.592Z,52.70
2019-02-21T02:32:57.874Z,52.70
2019-02-21T02:33:29.097Z,52.70
2019-02-21T02:34:00.686Z,52.70
2019-02-21T02:34:32.431Z,52.70
2019-02-21T02:35:03.821Z,52.70
2019-02-21T02:35:35.071Z,52.70
2019-02-21T02:36:06.345Z,52.70
2019-02-21T02:36:37.513Z,52.70
2019-02-21T02:37:08.701Z,52.70
2019-02-21T02:37:39.886Z,52.70
2019-02-21T02:38:11.061Z,52.70
2019-02-21T02:38:42.457Z,52.70
2019-02-21T02:39:13.763Z,52.70
2019-02-21T02:39:45.449Z,52.70
2019-02-21T02:40:16.654Z,52.70
2019-02-21T02:40:47.842Z,52.70
2019-02-21T02:41:19.089Z,52.70
2019-02-21T02:41:50.271Z,52.60
2019-02-21T02:42:21.581Z,52.70
2019-02-21T02:42:52.774Z,52.60
2019-02-21T02:43:23.953Z,52.60
2019-02-21T02:43:55.162Z,52.60
2019-02-21T02:44:26.591Z,52.60
2019-02-21T02:44:57.774Z,52.60
2019-02-21T02:45:28.946Z,52.60
2019-02-21T02:46:00.121Z,52.60
2019-02-21T02:46:31.391Z,52.60
2019-02-21T02:47:02.579Z,52.60
2019-02-21T02:47:33.846Z,52.60
2019-02-21T02:48:05.365Z,52.50
2019-02-21T02:48:36.620Z,52.60
2019-02-21T02:49:07.815Z,52.60
2019-02-21T02:49:39.548Z,52.60
2019-02-21T02:50:10.833Z,52.60
2019-02-21T02:50:41.995Z,52.60
2019-02-21T02:51:13.180Z,52.60
2019-02-21T02:51:44.451Z,52.60
2019-02-21T02:52:15.703Z,52.50
2019-02-21T02:52:46.995Z,52.60
2019-02-21T02:53:18.540Z,53.30
2019-02-21T02:53:49.783Z,52.60
2019-02-21T02:54:20.973Z,52.60
2019-02-21T02:54:52.183Z,53.20
2019-02-21T02:55:23.376Z,52.60
2019-02-21T02:55:54.998Z,52.60
2019-02-21T02:56:26.260Z,52.60
2019-02-21T02:56:57.469Z,52.60
2019-02-21T02:57:28.711Z,52.60
2019-02-21T02:58:00.002Z,52.50
2019-02-21T02:58:31.195Z,52.50
2019-02-21T02:59:02.863Z,52.50
2019-02-21T02:59:40.983Z,52.60
2019-02-21T03:00:06.993Z,52.50
2019-02-21T03:00:38.174Z,52.50
2019-02-21T03:01:09.414Z,52.50
2019-02-21T03:01:40.715Z,52.50
2019-02-21T03:02:11.973Z,52.40
2019-02-21T03:02:43.210Z,52.40
2019-02-21T03:03:14.393Z,52.40
2019-02-21T03:03:45.640Z,52.50
2019-02-21T03:04:16.994Z,52.40
2019-02-21T03:04:48.562Z,52.40
2019-02-21T03:05:19.767Z,52.40
2019-02-21T03:05:51.007Z,52.40
2019-02-21T03:06:22.258Z,52.40
2019-02-21T03:06:53.527Z,52.40
2019-02-21T03:07:24.878Z,52.40
2019-02-21T03:07:56.372Z,52.40
2019-02-21T03:08:27.973Z,52.30
2019-02-21T03:08:59.222Z,52.30
2019-02-21T03:09:30.525Z,52.40
2019-02-21T03:10:01.804Z,52.40
2019-02-21T03:10:33.662Z,52.40
2019-02-21T03:11:04.868Z,53.10
2019-02-21T03:11:36.140Z,52.40
2019-02-21T03:12:07.323Z,52.50
2019-02-21T03:12:38.524Z,52.40
2019-02-21T03:13:09.716Z,53.10
2019-02-21T03:13:40.914Z,52.40
2019-02-21T03:14:12.237Z,52.40
2019-02-21T03:14:43.447Z,52.40
2019-02-21T03:15:14.739Z,52.40
2019-02-21T03:15:46.008Z,52.40
2019-02-21T03:16:17.287Z,52.40
2019-02-21T03:16:48.472Z,52.40
2019-02-21T03:17:19.702Z,52.40
2019-02-21T03:17:50.967Z,52.40
2019-02-21T03:18:22.208Z,52.40
2019-02-21T03:18:53.506Z,52.40
2019-02-21T03:19:24.702Z,52.30
2019-02-21T03:19:55.999Z,52.40
2019-02-21T03:20:27.283Z,52.40
2019-02-21T03:20:58.501Z,52.30
2019-02-21T03:21:29.728Z,52.40
2019-02-21T03:22:00.960Z,52.40
2019-02-21T03:22:32.715Z,52.40
2019-02-21T03:23:04.004Z,52.40
2019-02-21T03:23:35.187Z,52.30
2019-02-21T03:24:06.384Z,52.30
2019-02-21T03:24:37.816Z,52.30
2019-02-21T03:25:09.041Z,52.30
2019-02-21T03:25:40.620Z,52.30
2019-02-21T03:26:12.058Z,52.30
2019-02-21T03:26:43.459Z,52.30
2019-02-21T03:27:15.031Z,52.30
2019-02-21T03:27:46.230Z,52.30
2019-02-21T03:28:17.408Z,52.30
2019-02-21T03:28:48.689Z,52.30
2019-02-21T03:29:19.889Z,52.30
2019-02-21T03:29:51.113Z,52.30
2019-02-21T03:30:22.344Z,52.30
2019-02-21T03:30:53.647Z,52.30
2019-02-21T03:31:24.896Z,52.30
2019-02-21T03:31:56.507Z,52.30
2019-02-21T03:32:28.029Z,52.30
2019-02-21T03:32:59.234Z,52.30
2019-02-21T03:33:30.546Z,52.50
2019-02-21T03:34:01.935Z,52.30
2019-02-21T03:34:33.218Z,52.40
2019-02-21T03:35:04.407Z,52.40
2019-02-21T03:35:35.728Z,52.30
2019-02-21T03:36:08.031Z,52.30
2019-02-21T03:36:39.273Z,52.30
2019-02-21T03:37:10.461Z,52.40
2019-02-21T03:37:41.675Z,52.30
2019-02-21T03:38:12.911Z,52.40
2019-02-21T03:38:44.145Z,52.40
2019-02-21T03:39:15.374Z,52.40
2019-02-21T03:39:46.679Z,52.40
2019-02-21T03:40:17.842Z,52.40
2019-02-21T03:40:49.122Z,52.40
2019-02-21T03:41:20.317Z,52.40
2019-02-21T03:41:51.617Z,52.40
2019-02-21T03:42:22.811Z,52.40
2019-02-21T03:42:54.002Z,52.40
2019-02-21T03:43:25.237Z,52.50
2019-02-21T03:43:56.465Z,52.40
2019-02-21T03:44:27.803Z,52.40
2019-02-21T03:44:59.501Z,52.40
2019-02-21T03:45:30.698Z,52.40
2019-02-21T03:46:01.887Z,52.40
2019-02-21T03:46:33.536Z,52.40
2019-02-21T03:47:04.790Z,52.40
2019-02-21T03:47:35.998Z,52.40
2019-02-21T03:48:07.660Z,52.40
2019-02-21T03:48:39.263Z,52.40
2019-02-21T03:49:10.899Z,52.40
2019-02-21T03:49:42.078Z,52.40
2019-02-21T03:50:13.274Z,52.30
2019-02-21T03:50:44.638Z,52.30
2019-02-21T03:51:15.880Z,52.30
2019-02-21T03:51:47.112Z,52.30
2019-02-21T03:52:18.294Z,52.30
2019-02-21T03:52:49.822Z,52.30
2019-02-21T03:53:21.377Z,52.30
2019-02-21T03:53:52.647Z,52.30
2019-02-21T03:54:24.240Z,52.40
2019-02-21T03:54:55.453Z,52.30
2019-02-21T03:55:27.021Z,52.30
2019-02-21T03:55:58.227Z,52.50
2019-02-21T03:56:29.613Z,52.30
2019-02-21T03:57:01.003Z,52.40
2019-02-21T03:57:32.191Z,52.40
2019-02-21T03:58:03.694Z,52.30
2019-02-21T03:58:34.965Z,52.40
2019-02-21T03:59:06.205Z,52.40
2019-02-21T03:59:37.440Z,52.40
2019-02-21T04:00:08.688Z,52.40
2019-02-21T04:00:39.963Z,52.40
2019-02-21T04:01:11.156Z,53.10
2019-02-21T04:01:42.626Z,52.40
2019-02-21T04:02:13.916Z,52.40
2019-02-21T04:02:45.156Z,52.40
2019-02-21T04:03:16.634Z,52.40
2019-02-21T04:03:48.154Z,52.50
2019-02-21T04:04:19.341Z,52.40
2019-02-21T04:04:50.584Z,52.40
2019-02-21T04:05:21.892Z,52.40
2019-02-21T04:05:53.165Z,52.30
2019-02-21T04:06:24.361Z,52.30
2019-02-21T04:06:55.966Z,52.30
2019-02-21T04:07:27.169Z,52.30
2019-02-21T04:07:58.496Z,52.30
2019-02-21T04:08:29.751Z,52.30
2019-02-21T04:09:01.088Z,52.30
2019-02-21T04:09:32.259Z,52.30
2019-02-21T04:10:03.508Z,52.30
2019-02-21T04:10:34.763Z,52.30
2019-02-21T04:11:05.978Z,52.30
2019-02-21T04:11:37.245Z,52.30
2019-02-21T04:12:08.428Z,52.30
2019-02-21T04:12:39.626Z,52.30
2019-02-21T04:13:11.005Z,52.30
2019-02-21T04:13:42.503Z,52.30
2019-02-21T04:14:13.836Z,52.30
2019-02-21T04:14:45.054Z,52.30
2019-02-21T04:15:16.396Z,52.30
2019-02-21T04:15:47.574Z,52.30
2019-02-21T04:16:18.790Z,52.30
2019-02-21T04:16:50.153Z,52.30
2019-02-21T04:17:21.352Z,52.30
2019-02-21T04:17:52.590Z,52.30
2019-02-21T04:18:23.869Z,52.30
2019-02-21T04:18:55.080Z,52.30
2019-02-21T04:19:26.278Z,52.90
2019-02-21T04:19:57.632Z,52.30
2019-02-21T04:20:28.977Z,52.30
2019-02-21T04:21:00.191Z,52.30
2019-02-21T04:21:31.378Z,52.40
2019-02-21T04:22:02.644Z,52.30
2019-02-21T04:22:33.885Z,52.30
2019-02-21T04:23:05.070Z,52.30
2019-02-21T04:23:36.284Z,52.30
2019-02-21T04:24:07.896Z,52.40
2019-02-21T04:24:39.163Z,52.30
2019-02-21T04:25:10.348Z,52.30
2019-02-21T04:25:41.581Z,52.40
2019-02-21T04:26:13.105Z,52.30
2019-02-21T04:26:44.528Z,52.30
2019-02-21T04:27:16.080Z,53.00
2019-02-21T04:27:47.282Z,52.40
2019-02-21T04:28:18.554Z,52.40
2019-02-21T04:28:49.757Z,52.40
2019-02-21T04:29:20.941Z,52.40
2019-02-21T04:29:52.415Z,52.40
2019-02-21T04:30:23.603Z,52.40
2019-02-21T04:30:54.783Z,52.80
2019-02-21T04:31:25.985Z,52.30
2019-02-21T04:31:57.164Z,52.40
2019-02-21T04:32:28.705Z,52.30
2019-02-21T04:32:59.893Z,52.30
2019-02-21T04:33:34.156Z,52.30
2019-02-21T04:34:04.453Z,52.30
2019-02-21T04:34:35.732Z,52.30
2019-02-21T04:35:07.341Z,52.30
2019-02-21T04:35:38.866Z,52.30
2019-02-21T04:36:10.396Z,53.00
2019-02-21T04:36:41.967Z,52.30
2019-02-21T04:37:13.273Z,52.30
2019-02-21T04:37:44.468Z,52.30
2019-02-21T04:38:15.660Z,52.30
2019-02-21T04:38:46.874Z,52.30
2019-02-21T04:39:18.465Z,52.30
2019-02-21T04:39:49.764Z,52.40
2019-02-21T04:40:21.006Z,52.30
2019-02-21T04:40:52.329Z,52.40
2019-02-21T04:41:23.629Z,53.00
2019-02-21T04:41:55.084Z,52.40
2019-02-21T04:42:26.297Z,52.30
2019-02-21T04:42:57.505Z,52.30
2019-02-21T04:43:28.690Z,52.30
2019-02-21T04:43:59.920Z,52.30
2019-02-21T04:44:31.257Z,52.30
2019-02-21T04:45:02.579Z,52.30
2019-02-21T04:45:33.862Z,52.30
2019-02-21T04:46:05.029Z,52.30
2019-02-21T04:46:36.609Z,52.30
2019-02-21T04:47:08.128Z,52.40
2019-02-21T04:47:39.667Z,52.30
2019-02-21T04:48:11.205Z,52.30
2019-02-21T04:48:42.473Z,52.30
2019-02-21T04:49:14.082Z,52.40
2019-02-21T04:49:45.408Z,52.40
2019-02-21T04:50:16.715Z,52.30
2019-02-21T04:50:48.038Z,52.40
2019-02-21T04:51:19.299Z,52.30
2019-02-21T04:51:50.494Z,52.30
2019-02-21T04:52:21.988Z,52.40
2019-02-21T04:52:53.206Z,52.30
2019-02-21T04:53:24.656Z,52.30
2019-02-21T04:53:55.826Z,52.30
2019-02-21T04:54:27.165Z,52.30
2019-02-21T04:54:58.906Z,52.30
2019-02-21T04:55:30.179Z,52.30
2019-02-21T04:56:01.359Z,52.30
2019-02-21T04:56:33.139Z,52.30
2019-02-21T04:57:04.407Z,52.30
2019-02-21T04:57:35.956Z,52.30
2019-02-21T04:58:07.291Z,52.30
2019-02-21T04:58:38.815Z,52.30
2019-02-21T04:59:10.012Z,52.30
2019-02-21T04:59:41.201Z,52.30
2019-02-21T05:00:13.260Z,52.30
2019-02-21T05:00:44.811Z,52.30
2019-02-21T05:01:16.135Z,52.30
2019-02-21T05:01:47.742Z,52.30
2019-02-21T05:02:28.431Z,52.30
2019-02-21T05:02:52.254Z,52.30
2019-02-21T05:03:23.441Z,52.30
2019-02-21T05:03:54.722Z,52.30
2019-02-21T05:04:25.916Z,52.30
2019-02-21T05:04:57.096Z,52.30
2019-02-21T05:05:28.393Z,52.30
2019-02-21T05:05:59.652Z,52.30
2019-02-21T05:06:30.850Z,52.30
2019-02-21T05:07:02.036Z,52.30
2019-02-21T05:07:33.226Z,53.00
2019-02-21T05:08:04.440Z,52.30
2019-02-21T05:08:35.927Z,52.40
2019-02-21T05:09:07.605Z,52.30
2019-02-21T05:09:39.305Z,52.30
2019-02-21T05:10:10.533Z,52.30
2019-02-21T05:10:41.787Z,52.30
2019-02-21T05:11:13.087Z,52.30
2019-02-21T05:11:44.436Z,52.40
2019-02-21T05:12:15.680Z,52.40
2019-02-21T05:12:47.054Z,52.30
2019-02-21T05:13:18.254Z,52.40
2019-02-21T05:13:49.437Z,52.40
2019-02-21T05:14:20.943Z,52.40
2019-02-21T05:14:52.175Z,52.20
2019-02-21T05:15:23.678Z,52.40
2019-02-21T05:15:54.884Z,52.30
2019-02-21T05:16:26.066Z,52.30
2019-02-21T05:16:57.282Z,52.40
2019-02-21T05:17:28.477Z,52.30
2019-02-21T05:18:00.097Z,52.30
2019-02-21T05:18:31.335Z,53.00
2019-02-21T05:19:02.552Z,52.30
2019-02-21T05:19:33.748Z,52.30
2019-02-21T05:20:04.950Z,52.30
2019-02-21T05:20:36.121Z,52.30
2019-02-21T05:21:07.342Z,52.30
2019-02-21T05:21:38.576Z,52.30
2019-02-21T05:22:09.785Z,52.30
2019-02-21T05:22:40.991Z,52.30
2019-02-21T05:23:12.181Z,52.50
2019-02-21T05:23:43.464Z,52.30
2019-02-21T05:24:14.660Z,52.30
2019-02-21T05:24:46.224Z,52.30
2019-02-21T05:25:17.724Z,52.30
2019-02-21T05:25:48.896Z,52.30
2019-02-21T05:26:20.123Z,52.30
2019-02-21T05:26:51.384Z,52.30
2019-02-21T05:27:22.593Z,52.30
2019-02-21T05:27:53.777Z,52.40
2019-02-21T05:28:24.955Z,52.30
2019-02-21T05:28:56.199Z,52.30
2019-02-21T05:29:27.767Z,52.30
2019-02-21T05:29:58.997Z,52.30
2019-02-21T05:30:30.174Z,52.30
2019-02-21T05:31:01.714Z,52.30
2019-02-21T05:31:33.243Z,52.30
2019-02-21T05:32:04.418Z,52.30
2019-02-21T05:32:40.966Z,52.30
2019-02-21T05:33:08.816Z,52.40
2019-02-21T05:33:39.994Z,52.40
2019-02-21T05:34:11.183Z,52.30
2019-02-21T05:34:42.416Z,52.30
2019-02-21T05:35:13.995Z,52.30
2019-02-21T05:35:45.175Z,52.30
2019-02-21T05:36:16.718Z,52.90
2019-02-21T05:36:47.898Z,52.30
2019-02-21T05:37:19.091Z,52.30
2019-02-21T05:37:50.451Z,52.30
2019-02-21T05:38:21.817Z,52.30
2019-02-21T05:38:53.530Z,52.30
2019-02-21T05:39:25.091Z,52.30
2019-02-21T05:39:56.311Z,52.90
2019-02-21T05:40:28.534Z,52.30
2019-02-21T05:41:00.059Z,52.30
2019-02-21T05:41:31.556Z,52.30
2019-02-21T05:42:02.806Z,52.20
2019-02-21T05:42:33.977Z,52.30
2019-02-21T05:43:05.552Z,52.30
2019-02-21T05:43:37.322Z,52.30
2019-02-21T05:44:08.671Z,52.30
2019-02-21T05:44:39.855Z,52.30
2019-02-21T05:45:11.491Z,52.30
2019-02-21T05:45:42.941Z,52.30
2019-02-21T05:46:14.201Z,52.30
2019-02-21T05:46:45.406Z,52.30
2019-02-21T05:47:16.696Z,52.30
2019-02-21T05:47:48.280Z,52.30
2019-02-21T05:48:19.479Z,52.30
2019-02-21T05:48:50.721Z,52.30
2019-02-21T05:49:21.956Z,52.30
2019-02-21T05:49:53.132Z,52.30
2019-02-21T05:50:24.344Z,52.30
2019-02-21T05:50:55.590Z,52.30
2019-02-21T05:51:26.784Z,52.30
2019-02-21T05:51:57.997Z,52.30
2019-02-21T05:52:29.301Z,52.40
2019-02-21T05:53:00.489Z,52.30
2019-02-21T05:53:31.721Z,52.30
2019-02-21T05:54:03.098Z,52.30
2019-02-21T05:54:34.834Z,52.30
2019-02-21T05:55:06.108Z,52.30
2019-02-21T05:55:37.384Z,52.40
2019-02-21T05:56:08.665Z,52.40
2019-02-21T05:56:40.183Z,52.70
2019-02-21T05:57:11.452Z,52.40
2019-02-21T05:57:42.640Z,52.40
2019-02-21T05:58:14.337Z,52.40
2019-02-21T05:58:45.594Z,52.40
2019-02-21T05:59:16.791Z,52.40
2019-02-21T05:59:48.001Z,52.40
2019-02-21T06:00:19.177Z,52.40
2019-02-21T06:00:50.933Z,52.40
2019-02-21T06:01:22.168Z,52.40
2019-02-21T06:01:53.392Z,52.40
2019-02-21T06:02:24.723Z,52.40
2019-02-21T06:02:55.902Z,52.50
2019-02-21T06:03:27.079Z,52.40
2019-02-21T06:03:58.275Z,52.40
2019-02-21T06:04:29.603Z,52.40
2019-02-21T06:05:00.788Z,52.40
2019-02-21T06:05:31.979Z,52.40
2019-02-21T06:06:03.188Z,52.40
2019-02-21T06:06:34.393Z,52.30
2019-02-21T06:07:05.590Z,52.30
2019-02-21T06:07:36.948Z,52.30
2019-02-21T06:08:08.155Z,52.30
2019-02-21T06:08:39.530Z,52.30
2019-02-21T06:09:10.923Z,52.30
2019-02-21T06:09:42.129Z,52.30
2019-02-21T06:10:13.297Z,52.30
2019-02-21T06:10:44.523Z,52.30
2019-02-21T06:11:18.265Z,52.40
2019-02-21T06:11:48.893Z,52.40
2019-02-21T06:12:20.082Z,52.30
2019-02-21T06:12:51.307Z,52.40
2019-02-21T06:13:22.713Z,52.40
2019-02-21T06:13:53.940Z,52.40
2019-02-21T06:14:25.225Z,52.40
2019-02-21T06:14:56.461Z,52.40
2019-02-21T06:15:28.003Z,52.40
2019-02-21T06:15:59.631Z,52.40
2019-02-21T06:16:32.750Z,52.40
2019-02-21T06:17:03.721Z,52.40
2019-02-21T06:17:34.912Z,52.40
2019-02-21T06:18:06.095Z,52.50
2019-02-21T06:18:37.291Z,52.40
2019-02-21T06:19:08.509Z,52.50
2019-02-21T06:19:39.697Z,52.40
2019-02-21T06:20:11.274Z,52.40
2019-02-21T06:20:42.463Z,52.50
2019-02-21T06:21:13.663Z,52.50
2019-02-21T06:21:44.842Z,52.50
2019-02-21T06:22:16.038Z,52.50
2019-02-21T06:22:47.215Z,52.40
2019-02-21T06:23:18.402Z,52.50
2019-02-21T06:23:49.592Z,52.40
2019-02-21T06:24:20.862Z,52.50
2019-02-21T06:24:52.324Z,52.40
2019-02-21T06:25:23.506Z,52.50
2019-02-21T06:25:58.226Z,52.40
2019-02-21T06:26:27.635Z,52.40
2019-02-21T06:27:01.006Z,52.40
2019-02-21T06:27:34.426Z,52.40
2019-02-21T06:28:05.020Z,52.40
2019-02-21T06:28:36.224Z,52.40
2019-02-21T06:29:09.751Z,52.40
2019-02-21T06:29:40.321Z,52.30
2019-02-21T06:30:11.585Z,52.40
2019-02-21T06:30:43.420Z,52.30
2019-02-21T06:31:14.630Z,52.40
2019-02-21T06:31:45.919Z,52.30
2019-02-21T06:32:17.101Z,52.30
2019-02-21T06:32:48.638Z,52.30
2019-02-21T06:33:19.825Z,52.30
2019-02-21T06:33:51.118Z,52.30
2019-02-21T06:34:22.302Z,52.40
2019-02-21T06:34:53.829Z,52.30
2019-02-21T06:35:25.034Z,52.40
2019-02-21T06:35:56.218Z,52.30
2019-02-21T06:36:27.521Z,52.40
2019-02-21T06:36:58.714Z,52.30
2019-02-21T06:37:29.925Z,52.40
2019-02-21T06:38:01.110Z,52.40
2019-02-21T06:38:33.695Z,52.40
2019-02-21T06:39:05.242Z,52.40
2019-02-21T06:39:36.436Z,52.30
2019-02-21T06:40:07.622Z,52.30
2019-02-21T06:40:38.803Z,52.40
2019-02-21T06:41:09.996Z,52.30
2019-02-21T06:41:42.840Z,52.30
2019-02-21T06:42:14.288Z,52.30
2019-02-21T06:42:45.502Z,52.30
2019-02-21T06:43:16.671Z,52.30